Time;durP1;ratioP1;P1;durP2;ratioP2;P2;SDS_P1;SDS_P2;PMS_P1;PMS_P2;Temp;Humidity;BMP_temperature;BMP_pressure;BME280_temperature;BME280_humidity;BME280_pressure;Samples;Min_cycle;Max_cycle;Signal;HPM_P1;HPM_P2
2021/06/18 00:02:49;;;;;;;6.53;4.87;;;20.30;77.10;;;;;;10371633;28;20218;-30
2021/06/18 00:08:12;;;;;;;7.43;5.40;;;20.30;77.00;;;;;;10374171;28;20201;-30
2021/06/18 00:13:35;;;;;;;5.47;4.93;;;20.30;77.20;;;;;;10372930;28;20215;-29
2021/06/18 00:18:57;;;;;;;6.20;5.50;;;20.30;77.30;;;;;;10369237;28;20573;-30
2021/06/18 00:24:19;;;;;;;5.83;5.27;;;20.30;77.20;;;;;;10330241;28;20601;-28
2021/06/18 00:29:42;;;;;;;7.43;5.60;;;20.30;77.30;;;;;;10343759;28;20203;-29
2021/06/18 00:35:06;;;;;;;5.70;5.17;;;20.30;77.30;;;;;;10370137;28;20225;-28
2021/06/18 00:40:29;;;;;;;6.80;5.20;;;20.30;77.40;;;;;;10370381;28;20198;-30
2021/06/18 00:45:52;;;;;;;6.87;5.23;;;20.30;77.50;;;;;;10371610;28;21578;-28
2021/06/18 00:51:14;;;;;;;6.40;5.63;;;20.30;77.60;;;;;;10365803;28;20207;-28
2021/06/18 00:56:37;;;;;;;7.03;5.57;;;20.30;77.60;;;;;;10483677;28;20204;-28
2021/06/18 01:02:00;;;;;;;5.97;5.13;;;20.30;77.70;;;;;;10538923;28;20187;-35
2021/06/18 01:07:27;;;;;;;8.33;5.57;;;20.30;77.80;;;;;;10435384;28;20739;-27
2021/06/18 01:12:57;;;;;;;8.30;5.67;;;20.30;77.90;;;;;;10368918;28;20202;-29
2021/06/18 01:18:27;;;;;;;6.60;5.90;;;20.30;77.90;;;;;;10368658;28;20350;-31
2021/06/18 01:24:04;;;;;;;6.10;5.60;;;20.30;78.00;;;;;;10361975;28;20233;-30
2021/06/18 01:29:30;;;;;;;6.20;5.70;;;20.40;78.20;;;;;;10369867;28;20206;-28
2021/06/18 01:34:54;;;;;;;8.03;6.40;;;20.30;78.30;;;;;;10371136;28;20295;-28
2021/06/18 01:40:18;;;;;;;6.53;5.93;;;20.30;78.40;;;;;;10371262;28;20581;-29
2021/06/18 01:45:45;;;;;;;6.77;6.00;;;20.40;78.60;;;;;;10367986;28;20301;-28
2021/06/18 01:51:08;;;;;;;6.53;5.87;;;20.30;78.70;;;;;;10364370;28;20973;-28
2021/06/18 01:56:35;;;;;;;6.40;5.80;;;20.30;78.60;;;;;;10365525;28;20221;-28
2021/06/18 02:02:00;;;;;;;8.07;5.50;;;20.40;78.90;;;;;;10370641;28;20194;-27
2021/06/18 02:07:24;;;;;;;7.77;6.93;;;20.40;79.10;;;;;;10361614;28;20230;-29
2021/06/18 02:12:47;;;;;;;7.23;6.23;;;20.50;79.20;;;;;;10369535;28;20665;-29
2021/06/18 02:18:12;;;;;;;8.47;6.67;;;20.50;79.20;;;;;;10370038;28;20201;-27
2021/06/18 02:23:35;;;;;;;9.10;6.97;;;20.50;79.00;;;;;;10364506;28;20211;-28
2021/06/18 02:28:57;;;;;;;8.03;7.23;;;20.50;79.50;;;;;;10365876;28;20194;-28
2021/06/18 02:34:21;;;;;;;7.80;7.00;;;20.50;79.40;;;;;;10366769;28;20234;-29
2021/06/18 02:39:43;;;;;;;7.67;6.37;;;20.50;79.20;;;;;;10366836;28;20581;-29
2021/06/18 02:45:06;;;;;;;10.73;7.40;;;20.50;79.30;;;;;;10366543;28;20222;-31
2021/06/18 02:50:38;;;;;;;8.90;7.20;;;20.50;79.60;;;;;;10357529;28;20197;-28
2021/06/18 02:56:04;;;;;;;10.03;7.43;;;20.60;79.80;;;;;;10365110;28;20214;-28
2021/06/18 03:01:30;;;;;;;10.30;7.00;;;20.50;79.90;;;;;;10365166;28;20202;-28
2021/06/18 03:06:55;;;;;;;9.23;6.97;;;20.60;80.10;;;;;;10365000;28;20227;-29
2021/06/18 03:12:21;;;;;;;10.60;7.23;;;20.60;80.20;;;;;;10326057;28;20195;-29
2021/06/18 03:17:44;;;;;;;8.23;7.30;;;20.60;80.30;;;;;;10324013;28;20586;-27
2021/06/18 03:23:12;;;;;;;9.90;7.60;;;20.60;80.30;;;;;;10355472;28;20191;-28
2021/06/18 03:28:35;;;;;;;9.17;7.77;;;20.60;80.30;;;;;;10367196;28;20194;-28
2021/06/18 03:33:59;;;;;;;10.50;7.80;;;20.60;80.10;;;;;;10334381;28;20227;-28
2021/06/18 03:39:24;;;;;;;13.17;8.97;;;20.60;80.60;;;;;;10326981;28;20201;-28
2021/06/18 03:44:48;;;;;;;8.90;8.00;;;20.60;80.70;;;;;;10363231;28;20229;-28
2021/06/18 03:50:12;;;;;;;8.90;7.83;;;20.50;80.80;;;;;;10363565;28;20210;-28
2021/06/18 03:55:35;;;;;;;12.70;8.50;;;20.50;81.20;;;;;;10362389;28;20206;-30
2021/06/18 04:00:59;;;;;;;12.07;8.30;;;20.60;81.10;;;;;;10343122;28;20206;-28
2021/06/18 04:06:23;;;;;;;13.27;8.60;;;20.50;81.20;;;;;;10356323;28;20218;-28
2021/06/18 04:11:47;;;;;;;12.73;8.60;;;20.50;81.20;;;;;;10362855;28;20199;-29
2021/06/18 04:17:10;;;;;;;11.77;8.53;;;20.50;81.20;;;;;;10363032;28;20219;-28
2021/06/18 04:22:34;;;;;;;10.93;8.20;;;20.50;81.40;;;;;;10360092;28;20726;-28
2021/06/18 04:28:00;;;;;;;10.43;8.10;;;20.50;81.10;;;;;;10362827;28;20305;-29
2021/06/18 04:33:22;;;;;;;9.80;8.37;;;20.50;81.10;;;;;;10362436;28;20609;-29
2021/06/18 04:38:44;;;;;;;11.43;8.53;;;20.50;81.30;;;;;;10367583;28;20202;-28
2021/06/18 04:44:08;;;;;;;8.40;7.50;;;20.50;81.10;;;;;;10403779;28;20739;-27
2021/06/18 04:49:30;;;;;;;8.40;7.63;;;20.50;80.80;;;;;;10368930;28;20202;-28
2021/06/18 04:54:55;;;;;;;8.27;7.47;;;20.40;80.60;;;;;;10369125;28;20214;-28
2021/06/18 05:00:24;;;;;;;7.83;7.03;;;20.40;80.50;;;;;;10368794;28;20817;-28
2021/06/18 05:05:46;;;;;;;8.40;7.63;;;20.40;80.50;;;;;;10361399;28;20712;-29
2021/06/18 05:11:08;;;;;;;11.13;8.33;;;20.40;80.60;;;;;;10362959;28;20674;-29
2021/06/18 05:16:32;;;;;;;8.63;7.33;;;20.40;80.60;;;;;;10328515;28;20260;-28
2021/06/18 05:21:54;;;;;;;8.27;6.77;;;20.30;80.60;;;;;;10347403;28;20198;-28
2021/06/18 05:27:16;;;;;;;8.27;7.47;;;20.30;80.60;;;;;;10360686;28;20222;-28
2021/06/18 05:32:39;;;;;;;8.30;7.50;;;20.30;80.60;;;;;;10368872;28;20199;-30
2021/06/18 05:38:02;;;;;;;8.73;7.83;;;20.30;80.70;;;;;;10500795;22;20435;-27
2021/06/18 05:43:24;;;;;;;8.83;7.93;;;20.30;80.70;;;;;;10539461;28;20206;-27
2021/06/18 05:48:47;;;;;;;11.07;7.70;;;20.30;80.70;;;;;;10499493;28;20587;-27
2021/06/18 05:54:10;;;;;;;9.13;7.77;;;20.30;80.60;;;;;;10498376;28;20185;-27
2021/06/18 05:59:33;;;;;;;9.57;8.37;;;20.30;80.50;;;;;;10493257;28;20330;-27
2021/06/18 06:04:56;;;;;;;8.80;7.90;;;20.40;80.60;;;;;;10492305;28;20227;-27
2021/06/18 06:10:18;;;;;;;8.67;7.87;;;20.40;80.50;;;;;;10492230;28;20197;-27
2021/06/18 06:15:40;;;;;;;8.83;7.93;;;20.40;80.40;;;;;;10464869;28;20220;-27
2021/06/18 06:21:04;;;;;;;9.60;8.70;;;20.40;80.30;;;;;;10467310;28;20210;-26
2021/06/18 06:26:26;;;;;;;9.40;8.53;;;20.40;80.20;;;;;;10480318;28;20726;-27
2021/06/18 06:31:48;;;;;;;9.87;8.90;;;20.50;80.20;;;;;;10497504;28;20323;-27
2021/06/18 06:37:12;;;;;;;10.33;9.33;;;20.50;80.20;;;;;;10473008;28;20224;-27
2021/06/18 06:42:34;;;;;;;10.30;9.40;;;20.50;80.10;;;;;;10469297;28;20211;-27
2021/06/18 06:47:56;;;;;;;11.07;9.10;;;20.50;80.10;;;;;;10487637;28;20223;-28
2021/06/18 06:53:20;;;;;;;10.83;9.20;;;20.50;80.10;;;;;;10488074;28;20679;-26
2021/06/18 06:58:43;;;;;;;10.53;9.23;;;20.60;80.10;;;;;;10494746;28;20232;-27
2021/06/18 07:04:05;;;;;;;10.83;9.17;;;20.50;80.00;;;;;;10484833;28;20579;-27
2021/06/18 07:09:28;;;;;;;9.53;8.60;;;20.60;80.00;;;;;;10473267;28;20630;-27
2021/06/18 07:14:50;;;;;;;10.47;9.47;;;20.60;80.00;;;;;;10492796;28;20197;-27
2021/06/18 07:20:13;;;;;;;12.63;9.80;;;20.60;80.00;;;;;;10495179;28;20204;-27
2021/06/18 07:25:38;;;;;;;10.50;9.50;;;20.50;80.00;;;;;;10489773;28;20220;-27
2021/06/18 07:31:00;;;;;;;11.10;10.10;;;20.60;80.10;;;;;;10490263;28;20200;-27
2021/06/18 07:36:22;;;;;;;11.07;9.47;;;20.50;80.20;;;;;;10493513;28;20695;-27
2021/06/18 07:41:46;;;;;;;10.30;9.33;;;20.60;80.00;;;;;;10492025;28;20196;-27
2021/06/18 07:47:09;;;;;;;9.97;9.03;;;20.60;80.10;;;;;;10491151;28;20722;-28
2021/06/18 07:52:31;;;;;;;10.87;9.73;;;20.60;80.20;;;;;;10490923;28;20196;-28
2021/06/18 07:57:54;;;;;;;11.50;9.57;;;20.60;80.00;;;;;;10493807;28;20215;-28
2021/06/18 08:03:16;;;;;;;10.83;9.83;;;20.60;80.10;;;;;;10492943;28;20203;-28
2021/06/18 08:08:38;;;;;;;10.67;9.77;;;20.60;80.20;;;;;;10460120;28;20604;-28
2021/06/18 08:14:02;;;;;;;10.90;9.80;;;20.60;80.30;;;;;;10485279;28;20208;-27
2021/06/18 08:19:24;;;;;;;10.70;9.70;;;20.60;80.50;;;;;;10492997;28;20203;-28
2021/06/18 08:24:46;;;;;;;11.00;9.90;;;20.60;80.60;;;;;;10494882;28;20226;-27
2021/06/18 08:30:10;;;;;;;12.40;10.30;;;20.50;80.70;;;;;;10500990;28;20197;-27
2021/06/18 08:35:32;;;;;;;12.97;10.23;;;20.60;80.70;;;;;;10478483;28;20421;-27
2021/06/18 08:40:55;;;;;;;12.10;9.63;;;20.60;80.90;;;;;;10472272;28;20206;-27
2021/06/18 08:46:18;;;;;;;10.93;9.80;;;20.60;80.90;;;;;;10457168;28;20219;-27
2021/06/18 08:51:41;;;;;;;12.10;10.53;;;20.60;80.90;;;;;;10497094;28;20688;-27
2021/06/18 08:57:03;;;;;;;10.87;9.77;;;20.70;80.90;;;;;;10498845;28;20212;-28
2021/06/18 09:02:27;;;;;;;11.00;9.90;;;20.60;81.10;;;;;;10476612;28;20216;-27
2021/06/18 09:07:54;;;;;;;11.07;10.00;;;20.70;81.00;;;;;;10497602;28;20219;-28
2021/06/18 09:13:18;;;;;;;10.33;9.43;;;20.70;80.90;;;;;;10460381;28;20197;-27
2021/06/18 09:18:44;;;;;;;10.67;9.67;;;20.70;80.90;;;;;;10476477;28;20217;-27
2021/06/18 09:24:07;;;;;;;10.63;9.73;;;20.70;80.90;;;;;;10487806;28;20204;-27
2021/06/18 09:29:31;;;;;;;10.57;9.57;;;20.70;81.00;;;;;;10484870;28;20200;-27
2021/06/18 09:35:00;;;;;;;11.17;9.80;;;20.80;81.10;;;;;;10456813;28;20255;-25
2021/06/18 09:40:24;;;;;;;11.03;10.03;;;20.80;80.90;;;;;;10493725;28;20201;-26
2021/06/18 09:45:47;;;;;;;10.60;9.70;;;20.80;81.20;;;;;;10469355;28;20220;-27
2021/06/18 09:51:11;;;;;;;13.37;9.97;;;20.80;81.20;;;;;;10492084;28;20676;-28
2021/06/18 09:56:33;;;;;;;10.77;9.87;;;20.80;81.40;;;;;;10458981;28;20280;-27
2021/06/18 10:01:55;;;;;;;9.63;8.83;;;20.80;81.40;;;;;;10461634;28;20579;-28
2021/06/18 10:07:26;;;;;;;11.10;9.30;;;20.70;81.20;;;;;;10495119;28;20216;-28
2021/06/18 10:12:49;;;;;;;10.10;9.30;;;20.70;81.30;;;;;;10497144;28;20184;-28
2021/06/18 10:18:12;;;;;;;10.63;9.57;;;20.80;81.30;;;;;;10494919;28;20675;-27
2021/06/18 10:23:37;;;;;;;11.40;10.20;;;20.80;81.30;;;;;;10492714;28;20731;-28
2021/06/18 10:29:01;;;;;;;11.73;10.60;;;20.80;81.60;;;;;;10479533;28;20231;-28
2021/06/18 10:34:38;;;;;;;10.90;9.90;;;20.80;81.60;;;;;;10471566;28;20567;-27
2021/06/18 10:40:09;;;;;;;11.97;10.77;;;20.80;81.60;;;;;;10479074;28;20232;-27
2021/06/18 10:46:05;;;;;;;11.87;10.57;;;20.80;81.80;;;;;;10489572;28;20219;-28
2021/06/18 10:51:39;;;;;;;12.93;10.90;;;20.80;81.70;;;;;;10453785;28;20663;-27
2021/06/18 10:57:13;;;;;;;12.70;11.50;;;20.80;82.00;;;;;;10492299;28;20683;-27
2021/06/18 11:02:40;;;;;;;12.27;11.17;;;20.70;82.00;;;;;;10494841;28;20235;-27
2021/06/18 11:08:25;;;;;;;12.87;11.03;;;20.70;82.10;;;;;;10493015;28;20231;-27
2021/06/18 11:14:00;;;;;;;12.40;11.30;;;20.80;82.10;;;;;;10452852;28;20212;-28
2021/06/18 11:19:27;;;;;;;14.27;11.07;;;20.70;82.10;;;;;;10454136;28;20193;-27
2021/06/18 11:24:49;;;;;;;12.90;11.10;;;20.80;82.20;;;;;;10483423;28;20220;-27
2021/06/18 11:30:27;;;;;;;11.37;10.17;;;20.70;82.20;;;;;;10453528;28;20723;-27
2021/06/18 11:35:49;;;;;;;12.73;11.43;;;20.80;82.30;;;;;;10533822;22;20216;-32
2021/06/18 11:41:12;;;;;;;15.10;11.73;;;20.70;82.40;;;;;;10499050;28;20204;-29
2021/06/18 11:46:37;;;;;;;13.77;11.80;;;20.70;82.30;;;;;;10527596;28;20215;-29
2021/06/18 11:52:05;;;;;;;14.80;11.23;;;20.70;82.40;;;;;;10544556;28;20300;-30
2021/06/18 11:57:28;;;;;;;13.77;11.40;;;20.70;82.50;;;;;;10536917;28;20215;-28
2021/06/18 12:02:52;;;;;;;12.97;10.67;;;20.70;82.60;;;;;;10506214;28;20282;-30
2021/06/18 12:08:15;;;;;;;14.43;11.17;;;20.70;82.70;;;;;;10546608;28;20349;-31
2021/06/18 12:13:50;;;;;;;13.53;10.60;;;20.70;82.70;;;;;;10517334;28;20288;-30
2021/06/18 12:19:21;;;;;;;11.93;10.73;;;20.80;82.70;;;;;;10535780;28;20215;-29
2021/06/18 12:24:45;;;;;;;11.53;10.40;;;20.70;82.60;;;;;;10490297;28;20671;-29
2021/06/18 12:30:09;;;;;;;12.00;10.03;;;20.70;82.80;;;;;;10505369;28;20193;-29
2021/06/18 12:35:38;;;;;;;12.23;10.57;;;20.70;82.80;;;;;;10503685;28;20746;-29
2021/06/18 12:41:00;;;;;;;11.63;10.43;;;20.70;82.80;;;;;;10515878;28;20210;-30
2021/06/18 12:46:22;;;;;;;10.50;9.53;;;20.70;82.80;;;;;;10546879;28;20732;-32
2021/06/18 12:51:45;;;;;;;10.97;9.93;;;20.80;82.80;;;;;;10530120;28;20214;-30
2021/06/18 12:57:08;;;;;;;10.37;9.20;;;20.80;82.80;;;;;;10505823;28;20216;-28
2021/06/18 13:02:34;;;;;;;14.20;10.00;;;20.80;82.90;;;;;;10498452;28;20212;-29
2021/06/18 13:07:58;;;;;;;10.80;9.73;;;20.80;82.80;;;;;;10497974;28;20701;-29
2021/06/18 13:13:22;;;;;;;10.97;9.77;;;20.80;82.90;;;;;;10474334;28;20204;-30
2021/06/18 13:18:51;;;;;;;15.40;10.70;;;20.90;82.90;;;;;;10476354;28;20706;-29
2021/06/18 13:24:17;;;;;;;13.80;10.73;;;20.90;83.00;;;;;;10486920;28;20205;-28
2021/06/18 13:29:46;;;;;;;12.77;10.70;;;20.90;83.30;;;;;;10512704;28;20216;-33
2021/06/18 13:35:12;;;;;;;11.63;9.97;;;21.00;83.30;;;;;;10497631;28;20277;-28
2021/06/18 13:40:39;;;;;;;11.53;10.43;;;20.90;83.20;;;;;;10512400;28;20266;-28
2021/06/18 13:46:01;;;;;;;10.13;9.07;;;20.90;83.00;;;;;;10484509;28;20220;-29
2021/06/18 13:51:24;;;;;;;11.37;10.27;;;20.90;83.10;;;;;;10496260;28;20212;-30
2021/06/18 13:56:47;;;;;;;12.33;10.23;;;20.90;83.10;;;;;;10496567;28;20224;-30
2021/06/18 14:02:10;;;;;;;10.93;9.93;;;20.90;83.00;;;;;;10473009;28;20211;-29
2021/06/18 14:07:32;;;;;;;11.50;10.30;;;20.90;82.90;;;;;;10496068;28;20224;-28
2021/06/18 14:12:56;;;;;;;10.20;9.27;;;20.90;82.80;;;;;;10490147;28;20197;-29
2021/06/18 14:18:18;;;;;;;10.13;9.23;;;20.90;82.90;;;;;;10529734;28;20221;-31
2021/06/18 14:23:40;;;;;;;10.50;9.13;;;20.90;83.00;;;;;;10528861;28;20198;-29
2021/06/18 14:29:04;;;;;;;10.63;9.50;;;20.80;83.00;;;;;;10537364;28;20595;-31
2021/06/18 14:34:26;;;;;;;11.17;9.10;;;20.80;83.00;;;;;;10537796;28;20674;-29
2021/06/18 14:39:48;;;;;;;9.80;8.83;;;20.80;83.00;;;;;;10511512;28;20636;-30
2021/06/18 14:45:13;;;;;;;9.57;8.67;;;20.80;83.00;;;;;;10494095;28;20216;-29
2021/06/18 14:50:35;;;;;;;10.30;9.40;;;20.80;83.00;;;;;;10494539;28;20201;-30
2021/06/18 14:55:57;;;;;;;9.00;8.10;;;20.80;83.00;;;;;;10504373;28;20208;-29
2021/06/18 15:01:21;;;;;;;9.27;8.47;;;20.80;82.90;;;;;;10536171;28;20215;-31
2021/06/18 15:06:44;;;;;;;8.53;7.73;;;20.80;83.00;;;;;;10503020;28;20314;-30
2021/06/18 15:12:06;;;;;;;9.23;8.43;;;20.80;83.00;;;;;;10491316;28;20207;-29
2021/06/18 15:17:30;;;;;;;9.57;8.60;;;20.80;83.00;;;;;;10511177;28;20212;-30
2021/06/18 15:22:52;;;;;;;8.57;7.90;;;20.80;82.90;;;;;;10530039;28;20701;-30
2021/06/18 15:28:14;;;;;;;8.30;7.60;;;20.80;82.90;;;;;;10493264;28;20216;-29
2021/06/18 15:33:37;;;;;;;8.90;8.10;;;20.80;82.90;;;;;;10518596;28;20574;-32
2021/06/18 15:38:59;;;;;;;8.60;7.90;;;20.80;82.90;;;;;;10515598;28;20217;-29
2021/06/18 15:44:22;;;;;;;8.47;7.67;;;20.80;82.90;;;;;;10460364;28;20196;-29
2021/06/18 15:49:45;;;;;;;8.93;8.03;;;20.80;82.80;;;;;;10517000;28;20216;-29
2021/06/18 15:55:08;;;;;;;8.77;7.87;;;20.80;82.90;;;;;;10483055;28;20204;-28
2021/06/18 16:00:30;;;;;;;8.47;7.77;;;20.80;82.70;;;;;;10492618;28;20666;-29
2021/06/18 16:05:54;;;;;;;8.83;8.03;;;20.90;82.60;;;;;;10492125;28;20208;-29
2021/06/18 16:11:17;;;;;;;8.57;7.77;;;20.90;82.50;;;;;;10484100;28;20200;-30
2021/06/18 16:16:39;;;;;;;8.43;7.63;;;20.80;82.40;;;;;;10490886;28;20287;-32
2021/06/18 16:22:04;;;;;;;8.93;7.90;;;20.80;82.30;;;;;;10531762;28;20723;-30
2021/06/18 16:27:27;;;;;;;8.23;7.43;;;20.80;82.30;;;;;;10534425;28;20215;-29
2021/06/18 16:32:50;;;;;;;9.10;8.17;;;20.80;82.30;;;;;;10535617;28;20192;-28
2021/06/18 16:38:14;;;;;;;8.13;7.47;;;20.90;82.30;;;;;;10530307;28;20217;-30
2021/06/18 16:43:36;;;;;;;8.63;7.93;;;20.90;82.40;;;;;;10498572;28;20650;-30
2021/06/18 16:48:58;;;;;;;8.73;7.87;;;20.90;82.70;;;;;;10498073;28;20266;-30
2021/06/18 16:54:22;;;;;;;8.20;7.40;;;20.90;82.70;;;;;;10499409;28;20211;-29
2021/06/18 16:59:44;;;;;;;9.40;8.40;;;20.90;82.70;;;;;;10497965;28;20595;-32
2021/06/18 17:05:07;;;;;;;8.73;7.93;;;20.90;82.90;;;;;;10513532;28;20201;-29
2021/06/18 17:10:32;;;;;;;8.17;7.47;;;20.90;82.90;;;;;;10496811;28;20594;-31
2021/06/18 17:15:56;;;;;;;8.30;7.53;;;20.90;82.90;;;;;;10498397;28;20205;-30
2021/06/18 17:21:21;;;;;;;8.33;7.53;;;20.90;82.80;;;;;;10506894;28;20204;-28
2021/06/18 17:26:45;;;;;;;8.57;7.77;;;20.90;82.80;;;;;;10525184;28;20213;-31
2021/06/18 17:32:08;;;;;;;8.73;7.83;;;20.90;82.70;;;;;;10492419;28;20679;-30
2021/06/18 17:37:30;;;;;;;8.20;7.40;;;20.90;82.80;;;;;;10499497;28;20227;-29
2021/06/18 17:42:54;;;;;;;8.93;8.10;;;20.90;82.70;;;;;;10499269;28;20597;-28
2021/06/18 17:48:16;;;;;;;8.40;7.50;;;20.90;82.80;;;;;;10456415;28;20219;-28
2021/06/18 17:53:38;;;;;;;8.00;7.13;;;20.80;82.70;;;;;;10454975;28;20196;-30
2021/06/18 17:59:01;;;;;;;8.30;7.60;;;20.90;82.80;;;;;;10454525;28;20236;-30
2021/06/18 18:04:23;;;;;;;10.07;7.30;;;20.90;82.80;;;;;;10453824;28;20272;-31
2021/06/18 18:09:46;;;;;;;8.60;7.10;;;20.90;82.80;;;;;;10470283;28;20213;-30
2021/06/18 18:15:10;;;;;;;8.00;7.30;;;20.90;83.40;;;;;;10499408;28;20203;-29
2021/06/18 18:20:33;;;;;;;8.33;7.40;;;20.90;82.80;;;;;;10513567;28;20192;-28
2021/06/18 18:25:57;;;;;;;9.47;8.13;;;20.90;82.80;;;;;;10534743;28;20215;-30
2021/06/18 18:31:20;;;;;;;8.87;7.70;;;20.90;82.90;;;;;;10532178;28;20188;-27
2021/06/18 18:36:43;;;;;;;8.30;7.50;;;20.90;83.10;;;;;;10531748;28;20698;-30
2021/06/18 18:42:06;;;;;;;8.30;7.17;;;20.90;83.10;;;;;;10497657;28;20215;-29
2021/06/18 18:47:29;;;;;;;8.10;7.13;;;20.80;83.10;;;;;;10489088;28;20232;-30
2021/06/18 18:52:51;;;;;;;10.73;7.53;;;20.80;83.10;;;;;;10488671;28;20314;-29
2021/06/18 18:58:17;;;;;;;12.23;7.73;;;20.80;83.10;;;;;;10488412;28;20303;-31
2021/06/18 19:03:41;;;;;;;8.30;7.50;;;20.80;83.10;;;;;;10488224;28;20200;-31
2021/06/18 19:09:03;;;;;;;8.03;7.23;;;20.80;83.10;;;;;;10495878;28;20708;-30
2021/06/18 19:14:26;;;;;;;7.80;7.10;;;20.80;83.10;;;;;;10488668;28;20200;-31
2021/06/18 19:19:50;;;;;;;8.30;7.50;;;20.80;83.10;;;;;;10486837;28;20293;-31
2021/06/18 19:25:13;;;;;;;7.97;7.17;;;20.80;83.00;;;;;;10485082;28;20273;-31
2021/06/18 19:30:35;;;;;;;7.83;7.03;;;20.80;83.00;;;;;;10486602;28;20208;-31
2021/06/18 19:35:58;;;;;;;8.07;7.27;;;20.80;83.00;;;;;;10486448;28;20220;-29
2021/06/18 19:41:20;;;;;;;8.97;7.17;;;20.80;83.00;;;;;;10483651;28;20678;-30
2021/06/18 19:46:44;;;;;;;8.20;7.10;;;20.80;83.00;;;;;;10504619;22;20235;-28
2021/06/18 19:52:08;;;;;;;8.00;7.20;;;20.80;82.90;;;;;;10480820;28;20208;-28
2021/06/18 19:57:30;;;;;;;7.90;7.20;;;20.80;83.00;;;;;;10484921;28;20212;-27
2021/06/18 20:02:52;;;;;;;7.93;7.23;;;20.80;82.90;;;;;;10452039;28;20275;-27
2021/06/18 20:08:16;;;;;;;9.87;7.37;;;20.80;82.90;;;;;;10475125;28;20628;-27
2021/06/18 20:13:39;;;;;;;7.57;6.97;;;20.80;83.00;;;;;;10500941;28;20216;-27
2021/06/18 20:19:01;;;;;;;8.17;7.33;;;20.80;82.90;;;;;;10502436;28;20567;-28
2021/06/18 20:24:25;;;;;;;7.33;6.63;;;20.80;82.90;;;;;;10469579;28;20603;-27
2021/06/18 20:29:47;;;;;;;7.87;7.10;;;20.80;82.90;;;;;;10497155;28;20216;-27
2021/06/18 20:35:12;;;;;;;7.73;7.10;;;20.80;82.90;;;;;;10500457;28;20322;-27
2021/06/18 20:40:38;;;;;;;7.30;6.70;;;20.80;82.90;;;;;;10498633;28;20192;-27
2021/06/18 20:46:00;;;;;;;7.30;6.70;;;20.80;82.90;;;;;;10499990;28;20220;-28
2021/06/18 20:51:23;;;;;;;7.67;6.97;;;20.80;82.90;;;;;;10501321;28;20235;-28
2021/06/18 20:56:49;;;;;;;7.70;7.00;;;20.80;82.90;;;;;;10500155;28;20220;-27
2021/06/18 21:02:11;;;;;;;7.73;6.97;;;20.80;82.90;;;;;;10498539;28;20578;-28
2021/06/18 21:07:33;;;;;;;7.27;6.67;;;20.80;82.90;;;;;;10492811;28;20224;-28
2021/06/18 21:12:56;;;;;;;7.93;7.13;;;20.80;82.90;;;;;;10498544;28;20212;-28
2021/06/18 21:18:19;;;;;;;7.63;7.03;;;20.80;82.90;;;;;;10498288;28;20193;-28
2021/06/18 21:23:41;;;;;;;7.43;6.70;;;20.80;82.90;;;;;;10498824;28;20213;-27
2021/06/18 21:29:05;;;;;;;8.03;7.37;;;20.80;82.90;;;;;;10498775;28;20228;-28
2021/06/18 21:34:27;;;;;;;7.40;6.70;;;20.80;83.00;;;;;;10497973;28;20220;-28
2021/06/18 21:39:49;;;;;;;7.57;6.87;;;20.80;82.90;;;;;;10488072;28;20576;-28
2021/06/18 21:45:13;;;;;;;7.53;6.90;;;20.80;82.90;;;;;;10497749;28;20623;-27
2021/06/18 21:50:35;;;;;;;7.33;6.73;;;20.80;82.90;;;;;;10498936;28;20765;-28
2021/06/18 21:55:57;;;;;;;8.00;7.20;;;20.80;82.90;;;;;;10497672;28;20227;-28
2021/06/18 22:01:21;;;;;;;7.83;7.13;;;20.80;82.90;;;;;;10494974;28;20200;-28
2021/06/18 22:06:43;;;;;;;7.37;6.77;;;20.80;82.90;;;;;;10496638;28;20212;-28
2021/06/18 22:12:06;;;;;;;7.27;6.67;;;20.80;82.90;;;;;;10496183;28;20197;-27
2021/06/18 22:17:30;;;;;;;7.90;7.10;;;20.80;83.10;;;;;;10496007;28;20683;-27
2021/06/18 22:22:53;;;;;;;7.73;7.03;;;20.80;82.90;;;;;;10487425;28;20189;-27
2021/06/18 22:28:17;;;;;;;7.87;7.27;;;20.80;82.90;;;;;;10494963;28;20228;-28
2021/06/18 22:33:40;;;;;;;7.27;6.57;;;20.80;82.90;;;;;;10491809;28;20216;-27
2021/06/18 22:39:05;;;;;;;7.43;6.83;;;20.70;82.90;;;;;;10495400;28;20197;-27
2021/06/18 22:44:27;;;;;;;8.13;7.43;;;20.80;82.90;;;;;;10495898;28;20235;-27
2021/06/18 22:49:50;;;;;;;7.40;6.80;;;20.80;82.90;;;;;;10495337;28;20224;-27
2021/06/18 22:55:15;;;;;;;7.90;7.10;;;20.80;83.00;;;;;;10495163;28;20239;-27
2021/06/18 23:00:41;;;;;;;7.47;6.87;;;20.80;83.00;;;;;;10495220;28;20201;-27
2021/06/18 23:06:05;;;;;;;7.53;6.83;;;20.80;82.90;;;;;;10495353;28;20450;-28
2021/06/18 23:11:27;;;;;;;8.20;7.50;;;20.80;82.90;;;;;;10491480;28;20510;-27
2021/06/18 23:16:49;;;;;;;7.60;6.90;;;20.70;82.90;;;;;;10494704;28;20560;-27
2021/06/18 23:22:12;;;;;;;7.47;6.87;;;20.80;83.00;;;;;;10493652;28;20193;-27
2021/06/18 23:27:34;;;;;;;8.13;7.43;;;20.70;82.90;;;;;;10494091;28;20228;-27
2021/06/18 23:32:57;;;;;;;8.17;7.47;;;20.70;82.90;;;;;;10492858;28;20207;-28
2021/06/18 23:38:21;;;;;;;8.03;7.33;;;20.80;82.90;;;;;;10493479;28;20196;-27
2021/06/18 23:43:43;;;;;;;7.80;7.10;;;20.80;83.00;;;;;;10493003;28;20595;-27
2021/06/18 23:49:05;;;;;;;8.27;7.57;;;20.80;83.00;;;;;;10452147;28;20213;-27
2021/06/18 23:54:36;;;;;;;7.63;7.03;;;20.80;82.90;;;;;;10449983;28;20217;-27
2021/06/18 23:59:58;;;;;;;8.37;7.67;;;20.80;83.00;;;;;;10481497;28;20254;-27
